createdAt,value
2022-12-27T00:00:56.562Z,99883.77
2022-12-27T00:02:02.044Z,99883.88
2022-12-27T00:03:05.765Z,99891.06
2022-12-27T00:04:08.269Z,99892.02
2022-12-27T00:05:10.696Z,99888.38
2022-12-27T00:06:17.877Z,99887.61
2022-12-27T00:07:20.767Z,99884.94
2022-12-27T00:08:23.474Z,99892.02
2022-12-27T00:09:25.881Z,99891.14
2022-12-27T00:10:28.373Z,99894.69
2022-12-27T00:11:31.139Z,99887.50
2022-12-27T00:12:33.735Z,99896.30
2022-12-27T00:13:37.229Z,99894.58
2022-12-27T00:14:39.921Z,99887.39
2022-12-27T00:15:44.229Z,99882.91
2022-12-27T00:16:47.083Z,99884.61
2022-12-27T00:17:51.594Z,99884.61
2022-12-27T00:18:54.072Z,99870.59
2022-12-27T00:19:56.384Z,99870.59
2022-12-27T00:20:59.907Z,99882.91
2022-12-27T00:22:02.753Z,99872.09
2022-12-27T00:23:06.260Z,99864.91
2022-12-27T00:24:09.803Z,99861.38
2022-12-27T00:25:12.148Z,99865.86
2022-12-27T00:26:20.361Z,99867.70
2022-12-27T00:27:23.487Z,99866.84
2022-12-27T00:28:26.153Z,99865.86
2022-12-27T00:29:28.682Z,99863.19
2022-12-27T00:30:32.633Z,99855.15
2022-12-27T00:31:35.822Z,99859.55
2022-12-27T00:32:38.739Z,99854.20
2022-12-27T00:33:42.341Z,99851.52
2022-12-27T00:34:44.828Z,99855.92
2022-12-27T00:35:48.598Z,99847.88
2022-12-27T00:36:51.041Z,99854.09
2022-12-27T00:37:53.251Z,99845.20
2022-12-27T00:38:56.567Z,99843.48
2022-12-27T00:40:00.082Z,99850.67
2022-12-27T00:41:03.887Z,99848.84
2022-12-27T00:42:06.549Z,99839.01
2022-12-27T00:43:10.192Z,99845.20
2022-12-27T00:44:12.732Z,99844.36
2022-12-27T00:45:15.242Z,99833.65
2022-12-27T00:46:18.001Z,99837.17
2022-12-27T00:47:20.324Z,99831.82
2022-12-27T00:48:22.712Z,99821.95
2022-12-27T00:49:25.148Z,99813.92
2022-12-27T00:50:27.570Z,99818.31
2022-12-27T00:51:29.911Z,99812.85
2022-12-27T00:52:32.475Z,99802.25
2022-12-27T00:53:35.363Z,99802.25
2022-12-27T00:54:38.567Z,99797.73
2022-12-27T00:55:43.927Z,99808.45
2022-12-27T00:56:46.612Z,99810.17
2022-12-27T00:57:48.840Z,99812.85
2022-12-27T00:58:55.834Z,99814.57
2022-12-27T00:59:58.332Z,99811.02
2022-12-27T01:01:12.879Z,99810.06
2022-12-27T01:02:15.850Z,99805.66
2022-12-27T01:03:18.848Z,99799.46
2022-12-27T01:04:22.341Z,99797.73
2022-12-27T01:05:24.813Z,99796.89
2022-12-27T01:06:31.504Z,99798.73
2022-12-27T01:07:34.391Z,99801.41
2022-12-27T01:08:37.114Z,99798.73
2022-12-27T01:09:40.374Z,99791.66
2022-12-27T01:10:43.257Z,99795.17
2022-12-27T01:11:45.583Z,99797.85
2022-12-27T01:12:49.019Z,99793.38
2022-12-27T01:13:51.853Z,99797.73
2022-12-27T01:14:54.823Z,99797.63
2022-12-27T01:15:57.433Z,99798.50
2022-12-27T01:17:00.147Z,99796.89
2022-12-27T01:18:02.635Z,99793.48
2022-12-27T01:19:05.167Z,99791.88
2022-12-27T01:20:08.986Z,99789.39
2022-12-27T01:21:12.553Z,99791.33
2022-12-27T01:22:15.797Z,99787.89
2022-12-27T01:23:18.264Z,99781.80
2022-12-27T01:24:20.786Z,99785.55
2022-12-27T01:25:24.118Z,99783.09
2022-12-27T01:26:26.701Z,99786.84
2022-12-27T01:27:29.149Z,99787.80
2022-12-27T01:28:31.614Z,99787.91
2022-12-27T01:29:34.031Z,99792.52
2022-12-27T01:30:38.252Z,99787.39
2022-12-27T01:31:40.879Z,99787.39
2022-12-27T01:32:43.360Z,99786.63
2022-12-27T01:33:45.799Z,99792.09
2022-12-27T01:34:48.335Z,99791.32
2022-12-27T01:35:50.758Z,99782.45
2022-12-27T01:36:53.280Z,99787.07
2022-12-27T01:37:55.802Z,99785.34
2022-12-27T01:38:58.812Z,99788.02
2022-12-27T01:40:01.644Z,99780.95
2022-12-27T01:41:06.456Z,99770.36
2022-12-27T01:42:35.306Z,99780.22
2022-12-27T01:43:38.004Z,99768.63
2022-12-27T01:44:45.976Z,99768.74
2022-12-27T01:45:48.479Z,99762.55
2022-12-27T01:46:51.136Z,99758.26
2022-12-27T01:48:02.521Z,99755.70
2022-12-27T01:49:05.350Z,99747.67
2022-12-27T01:50:21.293Z,99750.45
2022-12-27T01:51:23.744Z,99750.45
2022-12-27T01:52:34.758Z,99742.53
2022-12-27T01:53:38.387Z,99741.66
2022-12-27T01:54:41.154Z,99740.81
2022-12-27T01:55:53.246Z,99739.09
2022-12-27T01:56:56.245Z,99732.89
2022-12-27T01:58:02.819Z,99731.17
2022-12-27T01:59:07.775Z,99727.55
2022-12-27T02:00:14.371Z,99732.02
2022-12-27T02:01:21.993Z,99723.16
2022-12-27T02:02:24.655Z,99729.34
2022-12-27T02:04:54.184Z,99721.45
2022-12-27T02:05:57.317Z,99722.30
2022-12-27T02:06:59.790Z,99717.91
2022-12-27T02:08:26.272Z,99720.59
2022-12-27T02:09:49.552Z,99716.08
2022-12-27T02:10:52.122Z,99715.23
2022-12-27T02:11:56.687Z,99715.23
2022-12-27T02:12:59.194Z,99712.56
2022-12-27T02:14:01.691Z,99702.27
2022-12-27T02:15:05.406Z,99702.27
2022-12-27T02:16:17.074Z,99708.16
2022-12-27T02:17:25.775Z,99713.52
2022-12-27T02:18:28.241Z,99699.30
2022-12-27T02:19:43.654Z,99705.48
2022-12-27T02:21:02.097Z,99701.97
2022-12-27T02:22:20.172Z,99704.53
2022-12-27T02:23:56.620Z,99700.14
2022-12-27T02:26:56.130Z,99690.71
2022-12-27T02:28:21.658Z,99691.48
2022-12-27T02:29:27.812Z,99684.42
2022-12-27T02:30:33.157Z,99683.66
2022-12-27T02:31:48.730Z,99681.09
2022-12-27T02:32:54.949Z,99676.62
2022-12-27T02:33:57.907Z,99673.06
2022-12-27T02:35:16.592Z,99672.22
2022-12-27T02:36:25.520Z,99678.41
2022-12-27T02:37:31.442Z,99670.50
2022-12-27T02:39:48.550Z,99663.45
2022-12-27T02:41:09.455Z,99660.56
2022-12-27T02:42:31.867Z,99652.54
2022-12-27T02:43:53.158Z,99647.19
2022-12-27T02:45:16.102Z,99650.70
2022-12-27T02:46:40.746Z,99648.03
2022-12-27T02:48:03.403Z,99645.36
2022-12-27T02:49:47.763Z,99644.52
2022-12-27T02:51:24.860Z,99646.31
2022-12-27T02:54:26.716Z,99637.88
2022-12-27T02:57:08.850Z,99641.62
2022-12-27T02:58:24.198Z,99644.20
2022-12-27T02:59:33.913Z,99640.64
2022-12-27T03:02:45.302Z,99637.22
2022-12-27T03:04:09.185Z,99630.91
2022-12-27T03:05:50.626Z,99622.00
2022-12-27T03:07:27.960Z,99615.81
2022-12-27T03:08:31.702Z,99611.30
2022-12-27T03:10:11.871Z,99602.55
2022-12-27T03:11:32.754Z,99601.67
2022-12-27T03:13:16.698Z,99605.34
2022-12-27T03:14:44.827Z,99611.53
2022-12-27T03:16:09.682Z,99601.90
2022-12-27T03:18:43.519Z,99590.59
2022-12-27T03:20:09.233Z,99587.80
2022-12-27T03:21:32.710Z,99585.12
2022-12-27T03:22:54.996Z,99585.12
2022-12-27T03:24:16.959Z,99585.97
2022-12-27T03:25:29.392Z,99585.12
2022-12-27T03:26:34.617Z,99587.69
2022-12-27T03:27:38.054Z,99603.73
2022-12-27T03:28:59.094Z,99612.59
2022-12-27T03:30:22.890Z,99612.59
2022-12-27T03:31:48.917Z,99617.83
2022-12-27T03:33:13.109Z,99610.69
2022-12-27T03:36:09.680Z,99608.14
2022-12-27T03:37:34.187Z,99602.55
2022-12-27T03:38:56.786Z,99605.23
2022-12-27T03:40:12.742Z,99591.85
2022-12-27T03:41:35.731Z,99598.05
2022-12-27T03:43:00.356Z,99592.70
2022-12-27T03:44:05.667Z,99592.70
2022-12-27T03:45:08.325Z,99590.02
2022-12-27T03:46:34.106Z,99582.00
2022-12-27T03:49:00.388Z,99582.99
2022-12-27T03:51:24.323Z,99581.16
2022-12-27T03:52:47.866Z,99578.25
2022-12-27T03:53:51.512Z,99577.33
2022-12-27T03:54:58.194Z,99588.77
2022-12-27T03:56:00.632Z,99593.16
2022-12-27T03:57:08.103Z,99593.05
2022-12-27T03:58:10.474Z,99586.73
2022-12-27T03:59:13.852Z,99593.88
2022-12-27T04:00:18.163Z,99591.13
2022-12-27T04:01:20.856Z,99587.47
2022-12-27T04:02:23.846Z,99590.03
2022-12-27T04:03:26.531Z,99586.40
2022-12-27T04:04:29.012Z,99572.06
2022-12-27T04:05:31.420Z,99575.59
2022-12-27T04:06:33.941Z,99566.60
2022-12-27T04:07:36.332Z,99571.00
2022-12-27T04:08:56.928Z,99566.48
2022-12-27T04:10:17.699Z,99573.56
2022-12-27T04:11:38.499Z,99563.70
2022-12-27T04:12:59.187Z,99559.22
2022-12-27T04:14:20.157Z,99557.39
2022-12-27T04:15:41.972Z,99559.22
2022-12-27T04:17:03.524Z,99552.16
2022-12-27T04:18:24.281Z,99549.59
2022-12-27T04:19:45.167Z,99544.36
2022-12-27T04:21:06.522Z,99543.48
2022-12-27T04:22:27.256Z,99539.09
2022-12-27T04:23:48.407Z,99535.57
2022-12-27T04:25:09.386Z,99526.70
2022-12-27T04:26:32.610Z,99519.64
2022-12-27T04:27:53.464Z,99516.96
2022-12-27T04:29:14.242Z,99516.12
2022-12-27T04:30:35.665Z,99509.89
2022-12-27T04:31:56.436Z,99519.75
2022-12-27T04:33:17.306Z,99524.26
2022-12-27T04:34:39.880Z,99525.22
2022-12-27T04:35:42.339Z,99531.41
2022-12-27T04:36:44.949Z,99522.55
2022-12-27T04:37:47.259Z,99518.15
2022-12-27T04:38:49.704Z,99519.87
2022-12-27T04:40:10.837Z,99519.87
2022-12-27T04:41:31.791Z,99530.56
2022-12-27T04:42:54.233Z,99525.10
2022-12-27T04:44:15.081Z,99532.17
2022-12-27T04:45:35.922Z,99521.47
2022-12-27T04:46:56.876Z,99520.59
2022-12-27T04:48:17.683Z,99512.57
2022-12-27T04:49:43.050Z,99508.09
2022-12-27T04:51:04.148Z,99508.09
2022-12-27T04:52:41.323Z,99504.55
2022-12-27T04:54:02.841Z,99510.02
2022-12-27T04:56:27.873Z,99489.67
2022-12-27T04:57:30.462Z,99498.47
2022-12-27T04:58:33.275Z,99501.14
2022-12-27T04:59:54.752Z,99501.14
2022-12-27T05:01:17.569Z,99502.86
2022-12-27T05:02:21.615Z,99509.05
2022-12-27T05:03:24.910Z,99504.55
2022-12-27T05:04:29.978Z,99508.94
2022-12-27T05:05:33.824Z,99508.94
2022-12-27T05:06:36.292Z,99490.22
2022-12-27T05:07:57.033Z,99489.26
2022-12-27T05:10:45.730Z,99481.17
2022-12-27T05:12:06.605Z,99482.83
2022-12-27T05:13:32.035Z,99480.16
2022-12-27T05:14:34.597Z,99483.67
2022-12-27T05:15:36.941Z,99474.81
2022-12-27T05:16:41.508Z,99485.39
2022-12-27T05:17:44.232Z,99485.39
2022-12-27T05:18:48.098Z,99485.28
2022-12-27T05:19:50.569Z,99482.60
2022-12-27T05:20:53.909Z,99481.64
2022-12-27T05:22:15.937Z,99483.33
2022-12-27T05:25:06.239Z,99482.42
2022-12-27T05:26:09.143Z,99487.61
2022-12-27T05:27:11.651Z,99494.79
2022-12-27T05:28:14.885Z,99494.79
2022-12-27T05:29:17.254Z,99498.30
2022-12-27T05:30:20.773Z,99499.18
2022-12-27T05:31:23.655Z,99500.02
2022-12-27T05:32:26.448Z,99496.39
2022-12-27T05:33:32.342Z,99491.04
2022-12-27T05:34:35.063Z,99496.27
2022-12-27T05:35:40.505Z,99498.08
2022-12-27T05:36:43.837Z,99500.75
2022-12-27T05:37:51.481Z,99506.09
2022-12-27T05:38:51.531Z,99498.95
2022-12-27T05:39:53.960Z,99497.95
2022-12-27T05:41:02.271Z,99491.77
2022-12-27T05:42:05.639Z,99496.16
2022-12-27T05:43:08.204Z,99492.61
2022-12-27T05:44:10.662Z,99492.61
2022-12-27T05:45:13.666Z,99497.87
2022-12-27T05:46:18.176Z,99496.16
2022-12-27T05:47:21.859Z,99490.80
2022-12-27T05:48:24.262Z,99489.93
2022-12-27T05:49:26.656Z,99490.80
2022-12-27T05:50:29.190Z,99481.91
2022-12-27T05:51:34.174Z,99494.32
2022-12-27T05:52:40.947Z,99482.02
2022-12-27T05:53:40.751Z,99482.02
2022-12-27T05:54:43.992Z,99481.06
2022-12-27T05:55:54.892Z,99487.38
2022-12-27T05:56:58.033Z,99487.38
2022-12-27T05:58:01.370Z,99493.71
2022-12-27T05:59:04.144Z,99483.02
2022-12-27T06:00:08.060Z,99479.46
2022-12-27T06:01:17.541Z,99483.97
2022-12-27T06:02:20.313Z,99489.32
2022-12-27T06:03:23.063Z,99495.52
2022-12-27T06:04:29.184Z,99492.00
2022-12-27T06:05:32.863Z,99483.13
2022-12-27T06:06:36.224Z,99475.95
2022-12-27T06:07:38.841Z,99474.98
2022-12-27T06:08:41.280Z,99470.59
2022-12-27T06:09:44.844Z,99474.11
2022-12-27T06:10:48.035Z,99472.31
2022-12-27T06:11:50.573Z,99478.50
2022-12-27T06:12:52.989Z,99476.67
2022-12-27T06:13:57.613Z,99468.64
2022-12-27T06:15:00.128Z,99484.70
2022-12-27T06:16:03.181Z,99473.03
2022-12-27T06:17:05.873Z,99469.52
2022-12-27T06:18:09.168Z,99478.38
2022-12-27T06:19:11.630Z,99474.75
2022-12-27T06:20:14.831Z,99477.42
2022-12-27T06:21:19.075Z,99480.10
2022-12-27T06:22:21.721Z,99488.02
2022-12-27T06:23:24.091Z,99477.31
2022-12-27T06:24:28.460Z,99480.83
2022-12-27T06:25:31.719Z,99479.87
2022-12-27T06:26:34.592Z,99479.02
2022-12-27T06:27:37.595Z,99489.73
2022-12-27T06:28:41.330Z,99484.38
2022-12-27T06:29:45.276Z,99479.87
2022-12-27T06:30:49.013Z,99473.67
2022-12-27T06:31:52.159Z,99480.71
2022-12-27T06:32:54.699Z,99474.52
2022-12-27T06:33:58.323Z,99479.75
2022-12-27T06:35:01.585Z,99476.12
2022-12-27T06:36:07.075Z,99476.23
2022-12-27T06:37:10.171Z,99477.08
2022-12-27T06:38:12.571Z,99476.12
2022-12-27T06:39:15.727Z,99477.95
2022-12-27T06:40:20.203Z,99468.93
2022-12-27T06:41:22.811Z,99482.31
2022-12-27T06:42:25.353Z,99477.42
2022-12-27T06:43:29.240Z,99477.42
2022-12-27T06:44:32.826Z,99493.89
2022-12-27T06:45:35.810Z,99484.98
2022-12-27T06:46:38.573Z,99484.98
2022-12-27T06:47:41.043Z,99491.21
2022-12-27T06:48:45.243Z,99489.38
2022-12-27T06:49:47.707Z,99492.05
2022-12-27T06:50:50.448Z,99487.66
2022-12-27T06:51:59.289Z,99479.63
2022-12-27T06:52:57.873Z,99480.51
2022-12-27T06:54:00.284Z,99479.63
2022-12-27T06:55:03.834Z,99476.00
2022-12-27T06:57:21.024Z,99475.33
2022-12-27T06:58:24.933Z,99477.83
2022-12-27T06:59:27.367Z,99478.79
2022-12-27T07:00:30.740Z,99479.63
2022-12-27T07:01:35.585Z,99472.48
2022-12-27T07:02:41.032Z,99472.48
2022-12-27T07:03:43.668Z,99477.83
2022-12-27T07:04:46.178Z,99468.93
2022-12-27T07:05:49.220Z,99469.80
2022-12-27T07:06:52.213Z,99472.48
2022-12-27T07:07:55.902Z,99479.63
2022-12-27T07:08:59.177Z,99469.80
2022-12-27T07:10:01.968Z,99476.00
2022-12-27T07:11:06.807Z,99471.61
2022-12-27T07:12:10.374Z,99469.80
2022-12-27T07:13:12.748Z,99466.49
2022-12-27T07:14:15.707Z,99466.49
2022-12-27T07:15:20.643Z,99473.33
2022-12-27T07:16:25.355Z,99468.93
2022-12-27T07:17:27.826Z,99474.28
2022-12-27T07:18:30.177Z,99476.00
2022-12-27T07:19:32.591Z,99472.48
2022-12-27T07:20:36.342Z,99467.97
2022-12-27T07:21:39.623Z,99471.48
2022-12-27T07:22:42.105Z,99472.48
2022-12-27T07:23:45.251Z,99461.66
2022-12-27T07:24:47.843Z,99471.48
2022-12-27T07:25:50.932Z,99471.48
2022-12-27T07:26:53.373Z,99474.17
2022-12-27T07:27:56.669Z,99474.05
2022-12-27T07:29:00.034Z,99468.70
2022-12-27T07:30:03.954Z,99466.02
2022-12-27T07:32:27.306Z,99465.23
2022-12-27T07:33:29.508Z,99465.06
2022-12-27T07:34:33.038Z,99466.02
2022-12-27T07:35:38.614Z,99471.38
2022-12-27T07:36:41.341Z,99469.57
2022-12-27T07:37:43.888Z,99466.89
2022-12-27T07:38:47.503Z,99465.06
2022-12-27T07:39:50.002Z,99458.87
2022-12-27T07:40:52.609Z,99466.89
2022-12-27T07:41:55.832Z,99463.34
2022-12-27T07:42:59.201Z,99452.64
2022-12-27T07:44:03.495Z,99456.19
2022-12-27T07:45:07.126Z,99449.12
2022-12-27T07:46:13.519Z,99450.08
2022-12-27T07:47:16.112Z,99456.19
2022-12-27T07:48:18.433Z,99455.31
2022-12-27T07:49:21.998Z,99450.95
2022-12-27T07:50:25.568Z,99452.64
2022-12-27T07:51:29.180Z,99454.47
2022-12-27T07:52:32.113Z,99460.67
2022-12-27T07:53:34.902Z,99467.02
2022-12-27T07:54:37.657Z,99461.66
2022-12-27T07:55:41.177Z,99452.76
2022-12-27T07:56:44.218Z,99448.40
2022-12-27T07:57:46.619Z,99451.08
2022-12-27T07:58:50.418Z,99450.20
2022-12-27T07:59:54.223Z,99452.03
2022-12-27T08:00:56.771Z,99453.87
2022-12-27T08:02:05.897Z,99457.50
2022-12-27T08:03:08.757Z,99455.78
2022-12-27T08:04:11.330Z,99453.95
2022-12-27T08:05:13.652Z,99448.72
2022-12-27T08:06:24.001Z,99450.55
2022-12-27T08:07:28.039Z,99447.88
2022-12-27T08:09:50.540Z,99443.66
2022-12-27T08:10:54.158Z,99452.59
2022-12-27T08:11:58.688Z,99448.23
2022-12-27T08:13:01.699Z,99456.38
2022-12-27T08:14:05.515Z,99443.84
2022-12-27T08:15:09.515Z,99455.38
2022-12-27T08:16:22.178Z,99446.52
2022-12-27T08:17:26.706Z,99451.02
2022-12-27T08:18:29.362Z,99450.91
2022-12-27T08:19:33.159Z,99454.42
2022-12-27T08:20:36.010Z,99454.42
2022-12-27T08:21:38.999Z,99447.23
2022-12-27T08:22:41.815Z,99449.07
2022-12-27T08:23:45.117Z,99453.47
2022-12-27T08:24:48.852Z,99454.31
2022-12-27T08:25:52.168Z,99453.34
2022-12-27T08:26:54.805Z,99456.98
2022-12-27T08:28:05.948Z,99450.67
2022-12-27T08:29:08.416Z,99455.15
2022-12-27T08:30:12.138Z,99458.70
2022-12-27T08:31:14.577Z,99455.91
2022-12-27T08:32:17.936Z,99447.88
2022-12-27T08:33:20.988Z,99450.55
2022-12-27T08:34:23.245Z,99450.55
2022-12-27T08:35:51.498Z,99441.56
2022-12-27T08:37:36.997Z,99447.77
2022-12-27T08:38:39.411Z,99443.25
2022-12-27T08:39:43.656Z,99441.45
2022-12-27T08:40:46.579Z,99439.73
2022-12-27T08:41:49.089Z,99442.41
2022-12-27T08:42:52.206Z,99445.92
2022-12-27T08:43:54.856Z,99440.58
2022-12-27T08:44:57.964Z,99439.62
2022-12-27T08:47:16.933Z,99442.34
2022-12-27T08:48:21.565Z,99440.49
2022-12-27T08:49:24.328Z,99435.98
2022-12-27T08:50:28.098Z,99423.92
2022-12-27T08:51:38.741Z,99423.92
2022-12-27T08:52:35.627Z,99442.17
2022-12-27T08:53:38.463Z,99437.70
2022-12-27T08:54:41.796Z,99438.53
2022-12-27T08:55:44.085Z,99442.05
2022-12-27T08:56:48.530Z,99431.35
2022-12-27T08:57:57.777Z,99434.91
2022-12-27T08:59:00.448Z,99437.58
2022-12-27T09:00:03.670Z,99435.74
2022-12-27T09:01:07.057Z,99425.88
2022-12-27T09:02:10.941Z,99428.56
2022-12-27T09:03:13.632Z,99435.74
2022-12-27T09:04:16.056Z,99439.27
2022-12-27T09:05:20.047Z,99439.27
2022-12-27T09:06:23.640Z,99428.67
2022-12-27T09:07:26.567Z,99431.35
2022-12-27T09:08:29.209Z,99429.67
2022-12-27T09:09:33.202Z,99424.44
2022-12-27T09:10:36.117Z,99423.68
2022-12-27T09:11:41.039Z,99413.09
2022-12-27T09:12:45.357Z,99417.61
2022-12-27T09:13:49.133Z,99415.02
2022-12-27T09:14:52.825Z,99416.13
2022-12-27T09:15:55.432Z,99409.90
2022-12-27T09:16:58.744Z,99405.75
2022-12-27T09:18:02.641Z,99417.52
2022-12-27T09:19:05.178Z,99401.47
2022-12-27T09:20:08.682Z,99400.75
2022-12-27T09:21:12.540Z,99394.56
2022-12-27T09:22:15.630Z,99397.44
2022-12-27T09:23:17.915Z,99397.79
2022-12-27T09:24:20.230Z,99396.31
2022-12-27T09:25:22.637Z,99391.05
2022-12-27T09:26:27.893Z,99389.45
2022-12-27T09:27:32.550Z,99388.61
2022-12-27T09:28:35.365Z,99384.33
2022-12-27T09:29:40.445Z,99382.01
2022-12-27T09:30:43.821Z,99385.75
2022-12-27T09:31:46.189Z,99385.75
2022-12-27T09:32:48.614Z,99393.02
2022-12-27T09:33:51.661Z,99387.79
2022-12-27T09:34:54.526Z,99393.98
2022-12-27T09:36:11.030Z,99387.79
2022-12-27T09:37:13.650Z,99389.63
2022-12-27T09:38:16.595Z,99386.08
2022-12-27T09:39:19.539Z,99391.30
2022-12-27T09:40:22.223Z,99400.31
2022-12-27T09:43:19.497Z,99395.62
2022-12-27T09:44:28.616Z,99388.68
2022-12-27T09:45:35.866Z,99388.68
2022-12-27T13:59:42.213Z,99351.98
2022-12-27T14:00:48.273Z,99360.45
2022-12-27T14:02:14.811Z,99357.20
2022-12-27T14:03:39.234Z,99357.47
2022-12-27T14:06:36.164Z,99357.14
2022-12-27T14:07:58.400Z,99357.14
2022-12-27T14:09:37.262Z,99354.50
2022-12-27T14:10:52.780Z,99356.27
2022-12-27T14:12:33.640Z,99361.41
2022-12-27T14:13:38.948Z,99353.55
2022-12-27T14:14:41.405Z,99348.09
2022-12-27T14:16:21.377Z,99340.41
2022-12-27T14:17:44.660Z,99346.06
2022-12-27T14:19:08.275Z,99343.48
2022-12-27T14:20:49.476Z,99344.64
2022-12-27T14:22:21.124Z,99350.22
2022-12-27T14:23:32.989Z,99343.34
2022-12-27T14:24:59.464Z,99344.64
2022-12-27T14:26:23.168Z,99343.34
2022-12-27T14:27:49.728Z,99341.08
2022-12-27T14:29:29.610Z,99349.59
2022-12-27T14:30:57.350Z,99350.01
2022-12-27T14:32:34.672Z,99346.14
2022-12-27T14:34:00.723Z,99349.34
2022-12-27T14:35:26.453Z,99354.34
2022-12-27T14:36:51.810Z,99342.45
2022-12-27T14:38:19.059Z,99346.61
2022-12-27T14:39:25.184Z,99345.53
2022-12-27T14:40:51.958Z,99342.62
2022-12-27T14:42:17.370Z,99357.47
2022-12-27T14:43:45.655Z,99346.66
2022-12-27T14:46:37.696Z,99348.97
2022-12-27T14:47:49.547Z,99346.97
2022-12-27T14:49:09.019Z,99351.36
2022-12-27T14:50:50.738Z,99351.13
2022-12-27T14:52:10.555Z,99350.16
2022-12-27T14:53:33.167Z,99348.09
2022-12-27T14:55:13.072Z,99354.31
2022-12-27T14:56:26.151Z,99354.20
2022-12-27T14:57:45.015Z,99357.59
2022-12-27T14:59:10.005Z,99359.31
2022-12-27T15:00:18.163Z,99366.38
2022-12-27T15:01:39.246Z,99365.41
2022-12-27T15:03:01.954Z,99360.91
2022-12-27T15:05:42.018Z,99366.05
2022-12-27T15:07:07.827Z,99372.20
2022-12-27T15:08:28.620Z,99365.05
2022-12-27T15:09:47.316Z,99364.09
2022-12-27T15:11:02.929Z,99366.65
2022-12-27T15:12:15.602Z,99359.47
2022-12-27T15:14:53.532Z,99366.56
2022-12-27T15:16:15.775Z,99368.25
2022-12-27T15:17:47.672Z,99363.73
2022-12-27T15:19:18.062Z,99369.81
2022-12-27T15:20:28.188Z,99368.00
2022-12-27T15:21:51.245Z,99371.52
2022-12-27T15:23:09.006Z,99362.66
2022-12-27T15:24:22.069Z,99371.52
2022-12-27T15:25:43.521Z,99382.23
2022-12-27T15:26:56.705Z,99376.87
2022-12-27T15:28:12.559Z,99377.84
2022-12-27T15:29:41.115Z,99378.70
2022-12-27T15:30:50.286Z,99379.55
2022-12-27T15:32:05.314Z,99384.06
2022-12-27T15:34:33.314Z,99385.93
2022-12-27T15:35:39.352Z,99386.73
2022-12-27T15:36:45.077Z,99383.19
2022-12-27T15:37:59.523Z,99371.52
2022-12-27T15:39:03.121Z,99386.73
2022-12-27T15:41:48.172Z,99380.45
2022-12-27T15:44:39.727Z,99383.97
2022-12-27T15:45:54.740Z,99378.47
2022-12-27T15:47:05.005Z,99392.81
2022-12-27T15:48:12.179Z,99387.45
2022-12-27T15:49:34.198Z,99404.39
2022-12-27T15:50:49.681Z,99394.52
2022-12-27T15:51:59.625Z,99403.39
2022-12-27T15:53:37.693Z,99398.16
2022-12-27T15:55:04.753Z,99402.55
2022-12-27T15:56:23.573Z,99410.58
2022-12-27T15:57:52.284Z,99415.17
2022-12-27T15:59:32.405Z,99437.46
2022-12-27T16:00:36.656Z,99414.69
2022-12-27T16:01:41.151Z,99421.48
2022-12-27T16:02:52.505Z,99482.25
2022-12-27T16:03:57.909Z,99434.45
2022-12-27T16:05:05.231Z,99454.59
2022-12-27T16:06:10.275Z,99440.81
2022-12-27T16:07:45.039Z,99457.72
2022-12-27T16:08:47.505Z,99471.74
2022-12-27T16:09:50.706Z,99443.44
2022-12-27T16:10:56.772Z,99506.33
2022-12-27T16:12:09.506Z,99441.88
2022-12-27T16:13:19.693Z,99466.38
2022-12-27T16:14:26.549Z,99456.09
2022-12-27T16:15:46.422Z,99449.70
2022-12-27T16:16:53.849Z,99468.81
2022-12-27T16:17:57.112Z,99470.94
2022-12-27T16:19:12.077Z,99477.56
2022-12-27T16:20:18.895Z,99464.61
2022-12-27T16:21:27.156Z,99484.47
2022-12-27T16:22:33.507Z,99486.41
2022-12-27T16:23:38.216Z,99547.72
2022-12-27T16:24:40.658Z,99483.63
2022-12-27T16:25:43.327Z,99497.48
2022-12-27T16:27:02.524Z,99522.58
2022-12-27T16:28:19.104Z,99508.59
2022-12-27T16:29:27.229Z,99490.02
2022-12-27T16:30:48.899Z,99492.13
2022-12-27T16:31:52.803Z,99526.09
2022-12-27T16:32:55.784Z,99514.65
2022-12-27T16:35:14.825Z,99511.03
2022-12-27T16:36:36.614Z,99524.94
2022-12-27T16:37:45.307Z,99515.06
2022-12-27T16:39:04.649Z,99534.30
2022-12-27T16:42:00.739Z,99529.16
2022-12-27T16:43:12.926Z,99521.95
2022-12-27T16:44:19.524Z,99538.83
2022-12-27T16:45:46.474Z,99552.23
2022-12-27T16:47:25.065Z,99523.00
2022-12-27T16:48:44.053Z,99536.84
2022-12-27T16:51:33.128Z,99530.56
2022-12-27T16:52:52.263Z,99537.71
2022-12-27T16:55:56.567Z,99537.41
2022-12-27T16:57:27.131Z,99546.38
2022-12-27T16:58:32.864Z,99530.58
2022-12-27T17:00:03.930Z,99550.96
2022-12-27T17:01:27.085Z,99545.53
2022-12-27T17:02:39.399Z,99554.47
2022-12-27T17:03:44.262Z,99553.52
2022-12-27T17:04:58.701Z,99557.03
2022-12-27T17:06:31.155Z,99572.09
2022-12-27T17:07:11.054Z,99561.42
2022-12-27T17:08:25.324Z,99565.81
2022-12-27T17:09:37.046Z,99573.51
2022-12-27T17:10:51.549Z,99579.32
2022-12-27T17:11:59.292Z,99592.25
2022-12-27T17:13:18.027Z,99595.30
2022-12-27T17:14:29.635Z,99605.77
2022-12-27T17:15:32.859Z,99606.55
2022-12-27T17:16:40.294Z,99591.02
2022-12-27T17:17:43.774Z,99594.43
2022-12-27T17:18:53.461Z,99617.39
2022-12-27T17:19:59.920Z,99593.95
2022-12-27T17:22:32.343Z,99648.33
2022-12-27T17:23:33.081Z,99602.42
2022-12-27T17:24:36.483Z,99603.73
2022-12-27T17:25:44.333Z,99601.63
2022-12-27T17:26:51.009Z,99623.41
2022-12-27T17:28:06.498Z,99618.55
2022-12-27T17:29:31.154Z,99604.81
2022-12-27T17:32:40.202Z,99627.13
2022-12-27T17:35:35.041Z,99622.05
2022-12-27T17:36:58.682Z,99626.14
2022-12-27T17:38:24.134Z,99617.84
2022-12-27T17:41:22.144Z,99623.69
2022-12-27T17:42:49.925Z,99624.30
2022-12-27T17:44:18.018Z,99632.09
2022-12-27T17:45:31.400Z,99635.54
2022-12-27T17:48:28.785Z,99626.48
2022-12-27T17:49:33.800Z,99644.95
2022-12-27T17:50:37.650Z,99674.24
2022-12-27T17:51:44.602Z,99649.24
2022-12-27T17:54:56.786Z,99670.53
2022-12-27T17:56:21.464Z,99641.75
2022-12-27T17:57:43.672Z,99643.47
2022-12-27T17:58:46.088Z,99640.69
2022-12-27T17:59:49.611Z,99649.58
2022-12-27T18:00:54.769Z,99656.61
2022-12-27T18:02:06.427Z,99679.72
2022-12-27T18:03:09.560Z,99662.73
2022-12-27T18:04:28.865Z,99660.80
2022-12-27T18:05:31.914Z,99666.03
2022-12-27T20:21:20.802Z,99812.66
2022-12-27T20:22:23.453Z,99815.77
2022-12-27T20:23:29.426Z,99829.52
2022-12-27T20:24:32.409Z,99828.98
2022-12-27T20:25:35.933Z,99823.06
2022-12-27T20:26:40.168Z,99823.34
2022-12-27T20:27:45.119Z,99824.47
2022-12-27T20:28:48.187Z,99815.77
2022-12-27T20:29:50.628Z,99812.39
2022-12-27T20:30:54.497Z,99812.61
2022-12-27T20:31:57.418Z,99819.11
2022-12-27T20:33:01.214Z,99821.14
2022-12-27T20:34:05.546Z,99821.38
2022-12-27T20:35:08.412Z,99828.75
2022-12-27T20:36:11.766Z,99828.27
2022-12-27T20:37:16.606Z,99831.26
2022-12-27T20:38:19.314Z,99825.43
2022-12-27T20:39:21.898Z,99830.21
2022-12-27T20:40:24.301Z,99831.54
2022-12-27T20:41:27.877Z,99832.87
2022-12-27T20:42:30.646Z,99831.52
2022-12-27T20:43:33.920Z,99826.76
2022-12-27T20:44:36.261Z,99831.70
2022-12-27T20:45:39.756Z,99834.03
2022-12-27T20:46:42.737Z,99824.86
2022-12-27T20:47:46.062Z,99833.35
2022-12-27T20:48:49.416Z,99836.66
2022-12-27T20:49:52.629Z,99829.22
2022-12-27T20:50:55.069Z,99837.80
2022-12-27T20:51:57.380Z,99830.43
2022-12-27T20:53:00.426Z,99834.72
2022-12-27T20:54:03.789Z,99836.23
2022-12-27T20:55:11.555Z,99836.91